Time;durP1;ratioP1;P1;durP2;ratioP2;P2;SDS_P1;SDS_P2;PMS_P1;PMS_P2;Temp;Humidity;BMP_temperature;BMP_pressure;BME280_temperature;BME280_humidity;BME280_pressure;Samples;Min_cycle;Max_cycle;Signal;HPM_P1;HPM_P2
2021/10/25 00:02:19;;;;;;;1999.90;999.90;;;;;;;6.48;67.59;101834.84;15550276;28;20057;-58
2021/10/25 00:09:52;;;;;;;1999.90;999.90;;;;;;;6.19;68.19;101829.88;15557738;28;20108;-60
2021/10/25 00:17:26;;;;;;;1999.90;999.90;;;;;;;6.01;67.69;101833.16;15555898;28;20080;-57
2021/10/25 00:24:58;;;;;;;1999.90;999.90;;;;;;;5.81;67.24;101833.94;15556876;28;20041;-58
2021/10/25 00:32:33;;;;;;;1999.90;999.90;;;;;;;5.57;68.03;101822.53;15557040;28;20038;-61
2021/10/25 00:40:07;;;;;;;1999.90;999.90;;;;;;;5.31;68.54;101826.31;15554637;28;20046;-61
2021/10/25 00:47:41;;;;;;;1999.90;999.90;;;;;;;5.17;68.82;101823.22;15554890;28;20372;-61
2021/10/25 00:55:14;;;;;;;1999.90;999.90;;;;;;;5.04;68.91;101807.13;15537207;28;20057;-59
2021/10/25 01:02:48;;;;;;;1999.90;999.90;;;;;;;5.08;68.66;101802.69;15553337;28;20049;-58
2021/10/25 01:10:21;;;;;;;1999.90;999.90;;;;;;;4.72;70.10;101810.81;15553229;28;20510;-60
2021/10/25 01:17:58;;;;;;;1999.90;999.90;;;;;;;4.81;69.45;101794.56;15551504;28;20056;-58
2021/10/25 01:25:32;;;;;;;1999.90;999.90;;;;;;;4.82;71.06;101786.00;15535931;28;20066;-60
2021/10/25 01:33:13;;;;;;;1999.90;999.90;;;;;;;4.83;69.61;101784.06;15551883;28;20117;-61
2021/10/25 01:40:47;;;;;;;1999.90;999.90;;;;;;;4.76;69.64;101784.28;15550247;28;20050;-61
2021/10/25 01:48:20;;;;;;;1999.90;999.90;;;;;;;4.60;69.61;101765.97;15551482;28;20084;-60
2021/10/25 01:55:59;;;;;;;1999.90;999.90;;;;;;;4.47;69.85;101761.72;15533418;28;20054;-59
2021/10/25 02:03:34;;;;;;;1999.90;999.90;;;;;;;4.42;70.29;101753.41;15549464;28;20030;-60
2021/10/25 02:11:17;;;;;;;1999.90;999.90;;;;;;;4.82;71.91;101751.97;15549913;28;20157;-57
2021/10/25 02:18:57;;;;;;;1999.90;999.90;;;;;;;4.92;70.33;101750.09;15548825;28;20501;-60
2021/10/25 02:26:40;;;;;;;1999.90;999.90;;;;;;;4.90;69.68;101729.34;15531870;28;20045;-60
2021/10/25 02:34:13;;;;;;;1999.90;999.90;;;;;;;4.91;72.05;101723.53;15548245;28;20070;-62
2021/10/25 02:41:47;;;;;;;1999.90;999.90;;;;;;;5.19;70.33;101719.44;15532218;28;20050;-60
2021/10/25 02:49:25;;;;;;;1999.90;999.90;;;;;;;5.44;69.72;101706.78;15547680;28;20044;-62
2021/10/25 02:56:59;;;;;;;1999.90;999.90;;;;;;;5.40;70.11;101708.41;15532218;28;20112;-60
2021/10/25 03:04:36;;;;;;;1999.90;999.90;;;;;;;5.18;70.27;101709.47;15547291;28;20041;-62
2021/10/25 03:12:10;;;;;;;1999.90;999.90;;;;;;;5.46;70.01;101701.78;15547781;28;20056;-60
2021/10/25 03:19:47;;;;;;;1999.90;999.90;;;;;;;5.51;69.61;101707.31;15546479;28;20038;-60
2021/10/25 03:27:22;;;;;;;1999.90;999.90;;;;;;;5.55;67.60;101700.16;15546703;28;20383;-56
2021/10/25 03:34:55;;;;;;;1999.90;999.90;;;;;;;5.21;67.79;101692.34;15547625;28;20041;-60
2021/10/25 03:42:34;;;;;;;1999.90;999.90;;;;;;;4.84;68.32;101700.81;15559180;28;20452;-61
2021/10/25 03:50:10;;;;;;;1999.90;999.90;;;;;;;4.49;69.04;101711.72;15557323;28;20063;-57
2021/10/25 04:29:37;;;;;;;1999.90;999.90;;;;;;;4.06;69.71;101672.19;15667756;28;20033;-61
2021/10/25 04:37:10;;;;;;;1999.90;999.90;;;;;;;4.02;69.81;101669.16;15667199;28;20144;-61
2021/10/25 04:44:52;;;;;;;1999.90;999.90;;;;;;;4.28;70.82;101672.91;15650114;28;20080;-62
2021/10/25 04:52:27;;;;;;;1999.90;999.90;;;;;;;4.50;72.20;101658.94;15666041;28;20132;-57
2021/10/25 05:00:00;;;;;;;1999.90;999.90;;;;;;;4.58;71.24;101661.16;15665076;28;20082;-59
2021/10/25 05:07:35;;;;;;;1999.90;999.90;;;;;;;4.67;71.40;101660.63;15665368;28;20049;-62
2021/10/25 05:15:08;;;;;;;1999.90;999.90;;;;;;;4.62;71.66;101651.22;15618354;28;20673;-57
2021/10/25 05:22:42;;;;;;;1999.90;999.90;;;;;;;4.51;72.45;101651.47;15624386;28;20048;-57
2021/10/25 05:30:15;;;;;;;1999.90;999.90;;;;;;;4.82;71.19;101639.41;15606880;28;20341;-60
2021/10/25 05:37:49;;;;;;;1999.90;999.90;;;;;;;4.48;71.94;101640.94;15622480;28;20124;-62
2021/10/25 05:45:22;;;;;;;1999.90;999.90;;;;;;;4.79;70.86;101639.09;15605017;28;20111;-60
2021/10/25 05:52:56;;;;;;;1999.90;999.90;;;;;;;4.74;71.21;101634.41;15621277;28;20041;-60
2021/10/25 06:00:31;;;;;;;1999.90;999.90;;;;;;;4.64;71.17;101643.50;15620366;28;20447;-60
2021/10/25 06:08:08;;;;;;;1999.90;999.90;;;;;;;4.80;71.49;101641.63;15620551;28;20513;-58
2021/10/25 06:15:44;;;;;;;1999.90;999.90;;;;;;;4.72;71.38;101652.38;15619706;28;20052;-60
2021/10/25 06:23:19;;;;;;;1999.90;999.90;;;;;;;4.56;71.74;101637.66;15621652;28;20041;-60
2021/10/25 06:30:57;;;;;;;1999.90;999.90;;;;;;;5.05;70.35;101648.31;15602673;28;20054;-58
2021/10/25 06:38:38;;;;;;;1999.90;999.90;;;;;;;5.22;70.28;101646.97;15618900;28;20501;-60
2021/10/25 06:46:11;;;;;;;1999.90;999.90;;;;;;;5.34;69.59;101648.66;15619186;28;20045;-60
2021/10/25 06:53:45;;;;;;;1999.90;999.90;;;;;;;5.46;69.69;101652.81;15617894;28;20402;-60
2021/10/25 07:01:21;;;;;;;1999.90;999.90;;;;;;;7.31;65.47;101665.00;15624494;28;20049;-61
2021/10/25 07:08:56;;;;;;;1999.90;999.90;;;;;;;7.87;62.33;101654.25;15623249;28;20041;-60
2021/10/25 07:16:33;;;;;;;1999.90;999.90;;;;;;;7.84;62.66;101660.41;15617348;28;20060;-60
2021/10/25 08:04:09;;;;;;;1999.90;999.90;;;;;;;11.53;54.23;101650.09;15614725;28;20038;-61
2021/10/25 08:11:49;;;;;;;1999.90;999.90;;;;;;;11.77;53.96;101652.56;15615503;28;20045;-59
2021/10/25 08:19:24;;;;;;;1999.90;999.90;;;;;;;12.17;53.50;101639.50;15615195;28;20037;-60
2021/10/25 08:26:59;;;;;;;1999.90;999.90;;;;;;;12.07;53.58;101625.81;15631777;28;20045;-59
2021/10/25 08:34:41;;;;;;;1999.90;999.90;;;;;;;12.02;53.62;101629.56;15614537;28;20561;-59
2021/10/25 08:42:37;;;;;;;1999.90;999.90;;;;;;;12.50;52.37;101636.34;15616859;28;20046;-60
2021/10/25 08:50:18;;;;;;;1999.90;999.90;;;;;;;13.27;50.62;101628.16;15623568;28;20494;-60
2021/10/25 08:57:52;;;;;;;1999.90;999.90;;;;;;;13.37;50.08;101637.41;15625045;28;20053;-60
2021/10/25 09:05:26;;;;;;;1999.90;999.90;;;;;;;14.01;48.75;101638.31;15624291;28;20499;-60
2021/10/25 09:13:06;;;;;;;1999.90;999.90;;;;;;;14.06;48.47;101640.91;15623790;28;20103;-60
2021/10/25 09:20:43;;;;;;;1999.90;999.90;;;;;;;15.19;46.26;101637.56;15623316;28;20042;-60
2021/10/25 09:28:23;;;;;;;1999.90;999.90;;;;;;;16.36;44.62;101635.44;15606499;28;20084;-61
2021/10/25 09:36:02;;;;;;;1999.90;999.90;;;;;;;16.46;42.99;101629.34;15623543;28;20077;-60
2021/10/25 09:51:38;;;;;;;1999.90;999.90;;;;;;;16.91;43.47;101636.91;15628430;28;20057;-60
2021/10/25 09:59:31;;;;;;;1999.90;999.90;;;;;;;17.70;41.55;101628.84;15627057;28;20498;-60
2021/10/25 10:07:05;;;;;;;1999.90;999.90;;;;;;;18.03;41.32;101620.06;15621309;28;20047;-60
2021/10/25 10:14:39;;;;;;;1999.90;999.90;;;;;;;18.49;40.70;101618.47;15643662;22;20505;-62
2021/10/25 10:22:15;;;;;;;1999.90;999.90;;;;;;;19.25;39.03;101617.06;15675612;28;20546;-62
2021/10/25 10:30:11;;;;;;;1999.90;999.90;;;;;;;18.12;41.36;101613.06;15680028;28;20081;-62
2021/10/25 10:38:01;;;;;;;1999.90;999.90;;;;;;;16.78;43.48;101622.00;15695984;28;20120;-61
2021/10/25 10:45:41;;;;;;;1999.90;999.90;;;;;;;17.46;42.92;101615.63;15681579;28;20493;-62
2021/10/25 10:53:20;;;;;;;1999.90;999.90;;;;;;;17.02;43.19;101607.88;15693058;28;20037;-63
2021/10/25 11:01:04;;;;;;;1999.90;999.90;;;;;;;15.64;46.02;101620.03;15692047;28;20397;-62
2021/10/25 11:08:39;;;;;;;1999.90;999.90;;;;;;;14.59;48.81;101616.28;15693113;28;20052;-62
2021/10/25 11:16:17;;;;;;;1999.90;999.90;;;;;;;14.46;49.13;101614.56;15691642;28;20124;-61
2021/10/25 11:23:52;;;;;;;1999.90;999.90;;;;;;;15.74;47.32;101623.25;15671434;28;20041;-61
2021/10/25 11:31:29;;;;;;;1999.90;999.90;;;;;;;16.74;45.10;101607.78;15688296;28;20163;-62
2021/10/25 11:39:08;;;;;;;1999.90;999.90;;;;;;;16.08;45.91;101593.06;15689556;28;20048;-62
2021/10/25 11:46:44;;;;;;;1999.90;999.90;;;;;;;15.99;46.67;101575.44;15688293;28;20048;-63
2021/10/25 11:54:17;;;;;;;1999.90;999.90;;;;;;;16.92;44.72;101580.16;15687923;28;20045;-63
2021/10/25 12:01:52;;;;;;;1999.90;999.90;;;;;;;18.04;43.29;101577.38;15691993;28;20421;-62
2021/10/25 12:09:31;;;;;;;1999.90;999.90;;;;;;;17.51;43.37;101578.69;15690424;28;20037;-63
2021/10/25 12:17:07;;;;;;;1999.90;999.90;;;;;;;17.08;45.74;101577.41;15692322;28;20045;-62
2021/10/25 12:24:42;;;;;;;1999.90;999.90;;;;;;;16.04;47.72;101563.94;15697827;28;20060;-63
2021/10/25 12:32:16;;;;;;;1999.90;999.90;;;;;;;16.01;47.98;101565.47;15699888;28;20041;-63
2021/10/25 12:39:49;;;;;;;1999.90;999.90;;;;;;;16.06;47.23;101559.63;15699167;28;20041;-61
2021/10/25 12:47:25;;;;;;;1999.90;999.90;;;;;;;17.24;44.11;101561.41;15696641;28;20553;-62
2021/10/25 12:55:04;;;;;;;1999.90;999.90;;;;;;;16.89;46.13;101543.44;15696898;28;20045;-61
2021/10/25 13:02:46;;;;;;;1999.90;999.90;;;;;;;15.56;49.50;101540.16;15695674;28;20033;-63
2021/10/25 13:10:22;;;;;;;1999.90;999.90;;;;;;;15.32;49.87;101529.66;15695373;28;20135;-63
2021/10/25 13:18:01;;;;;;;1999.90;999.90;;;;;;;16.26;48.63;101512.84;15699228;28;20051;-62
2021/10/25 13:25:35;;;;;;;1999.90;999.90;;;;;;;15.47;50.28;101520.53;15700924;28;20085;-63
2021/10/25 13:33:10;;;;;;;1999.90;999.90;;;;;;;14.99;51.58;101495.84;15695608;28;20553;-63
2021/10/25 13:40:43;;;;;;;1999.90;999.90;;;;;;;15.20;51.54;101523.94;15695552;28;20037;-62
2021/10/25 13:48:17;;;;;;;1999.90;999.90;;;;;;;15.35;51.17;101492.38;15694479;28;20052;-62
2021/10/25 13:55:49;;;;;;;1999.90;999.90;;;;;;;14.76;52.54;101515.06;15694825;28;20037;-63
2021/10/25 14:03:23;;;;;;;1999.90;999.90;;;;;;;14.67;52.91;101491.84;15696678;28;20049;-63
2021/10/25 14:10:56;;;;;;;1999.90;999.90;;;;;;;14.56;53.60;101482.97;15691732;28;20502;-63
2021/10/25 14:18:31;;;;;;;1999.90;999.90;;;;;;;14.59;54.28;101476.72;15695573;28;20112;-64
2021/10/25 14:26:03;;;;;;;1999.90;999.90;;;;;;;14.04;55.41;101474.03;15695402;28;20444;-63
2021/10/25 14:33:37;;;;;;;1999.90;999.90;;;;;;;14.71;53.97;101470.34;15674849;28;20064;-61
2021/10/25 14:41:19;;;;;;;1999.90;999.90;;;;;;;14.72;54.69;101484.03;15691380;28;20120;-62
2021/10/25 14:48:56;;;;;;;1999.90;999.90;;;;;;;14.21;55.66;101471.16;15674702;28;20071;-62
2021/10/25 14:56:28;;;;;;;1999.90;999.90;;;;;;;14.29;55.82;101470.28;15675227;28;20097;-63
2021/10/25 15:04:05;;;;;;;1999.90;999.90;;;;;;;14.49;55.45;101457.44;15692188;28;20587;-63
2021/10/25 15:11:38;;;;;;;1999.90;999.90;;;;;;;14.05;56.59;101459.66;15688550;28;20117;-63
2021/10/25 15:19:13;;;;;;;1999.90;999.90;;;;;;;13.53;58.45;101457.09;15671646;28;20099;-63
2021/10/25 15:26:48;;;;;;;1999.90;999.90;;;;;;;13.57;58.28;101457.25;15686245;28;20056;-62
2021/10/25 15:34:22;;;;;;;1999.90;999.90;;;;;;;13.74;57.93;101447.94;15668179;28;20056;-62
2021/10/25 15:41:54;;;;;;;1999.90;999.90;;;;;;;13.29;59.16;101454.88;15684965;28;20075;-63
2021/10/25 15:49:28;;;;;;;1999.90;999.90;;;;;;;13.00;59.86;101446.31;15663312;28;20151;-62
2021/10/25 15:57:01;;;;;;;1999.90;999.90;;;;;;;12.65;60.76;101439.94;15684213;28;20515;-62
2021/10/25 16:04:35;;;;;;;1999.90;999.90;;;;;;;12.46;61.66;101436.63;15697170;28;20135;-63
2021/10/25 16:12:09;;;;;;;1999.90;999.90;;;;;;;12.21;62.21;101430.69;15680251;28;20041;-62
2021/10/25 16:19:46;;;;;;;1999.90;999.90;;;;;;;12.23;62.24;101416.38;15637934;22;20046;-59
2021/10/25 16:27:20;;;;;;;1999.90;999.90;;;;;;;11.81;63.69;101427.13;15609903;28;20599;-59
2021/10/25 16:34:54;;;;;;;1999.90;999.90;;;;;;;11.94;63.25;101430.94;15608341;28;20521;-61
2021/10/25 16:42:26;;;;;;;1999.90;999.90;;;;;;;11.55;64.13;101427.81;15610049;28;20046;-60
2021/10/25 16:50:02;;;;;;;1999.90;999.90;;;;;;;11.25;65.53;101434.22;15609853;28;20484;-61
2021/10/25 17:13:18;;;;;;;1999.90;999.90;;;;;;;11.39;65.37;101448.97;15618304;28;20580;-61
2021/10/25 17:20:52;;;;;;;1999.90;999.90;;;;;;;11.13;65.62;101434.81;15618589;28;20053;-61
2021/10/25 17:28:25;;;;;;;1999.90;999.90;;;;;;;11.29;65.89;101429.66;15617979;28;20053;-60
2021/10/25 17:35:59;;;;;;;1999.90;999.90;;;;;;;10.90;65.96;101427.63;15618705;28;20482;-59
2021/10/25 17:43:32;;;;;;;1999.90;999.90;;;;;;;10.47;66.17;101427.28;15616573;28;20041;-59
2021/10/25 17:51:07;;;;;;;1999.90;999.90;;;;;;;10.16;66.66;101444.69;15616613;28;20136;-60
2021/10/25 17:58:39;;;;;;;1999.90;999.90;;;;;;;9.80;67.48;101441.84;15618247;28;20049;-61
2021/10/25 18:06:14;;;;;;;1999.90;999.90;;;;;;;9.63;67.80;101436.88;15615856;28;20073;-59
2021/10/25 18:13:46;;;;;;;1999.90;999.90;;;;;;;9.43;67.98;101431.72;15617424;28;20061;-60
2021/10/25 18:21:21;;;;;;;1999.90;999.90;;;;;;;9.22;68.32;101432.09;15615988;28;20052;-61
2021/10/25 18:28:53;;;;;;;1999.90;999.90;;;;;;;8.98;68.72;101422.25;15615584;28;20049;-61
2021/10/25 18:36:28;;;;;;;1999.90;999.90;;;;;;;8.87;68.69;101427.16;15615209;28;20124;-61
2021/10/25 18:44:04;;;;;;;1999.90;999.90;;;;;;;8.64;69.17;101426.13;15614718;28;20787;-60
2021/10/25 18:51:38;;;;;;;1999.90;999.90;;;;;;;8.58;69.22;101416.22;15614367;28;20417;-61
2021/10/25 18:59:11;;;;;;;1999.90;999.90;;;;;;;8.36;68.95;101402.94;15612984;28;20056;-61
2021/10/25 19:06:45;;;;;;;1999.90;999.90;;;;;;;8.25;69.71;101390.31;15612138;28;20085;-61
2021/10/25 19:14:17;;;;;;;1999.90;999.90;;;;;;;8.19;69.41;101397.03;15614324;28;20049;-61
2021/10/25 19:21:51;;;;;;;1999.90;999.90;;;;;;;8.09;69.71;101398.03;15614052;28;20525;-61
2021/10/25 19:29:24;;;;;;;1999.90;999.90;;;;;;;7.89;69.81;101387.19;15611987;28;20077;-62
2021/10/25 19:36:58;;;;;;;1999.90;999.90;;;;;;;7.89;70.05;101389.97;15612026;28;20045;-61
2021/10/25 19:44:31;;;;;;;1999.90;999.90;;;;;;;7.73;70.26;101392.13;15611648;28;20110;-61
2021/10/25 19:52:06;;;;;;;1999.90;999.90;;;;;;;7.76;70.10;101381.25;15611894;28;20117;-62
2021/10/25 19:59:40;;;;;;;1999.90;999.90;;;;;;;7.59;70.82;101385.63;15612215;28;20497;-61
2021/10/25 20:07:14;;;;;;;1999.90;999.90;;;;;;;7.67;70.16;101393.31;15610687;28;20041;-60
2021/10/25 20:14:47;;;;;;;1999.90;999.90;;;;;;;7.63;70.54;101384.75;15609068;28;20149;-60
2021/10/25 20:22:20;;;;;;;1999.90;999.90;;;;;;;7.69;70.92;101391.88;15608356;28;20309;-62
2021/10/25 20:29:53;;;;;;;1999.90;999.90;;;;;;;7.84;72.47;101398.38;15608427;28;20053;-62
2021/10/25 20:37:27;;;;;;;1999.90;999.90;;;;;;;8.04;73.06;101389.78;15608305;28;20050;-59
2021/10/25 20:45:00;;;;;;;1999.90;999.90;;;;;;;8.01;71.91;101382.00;15614821;28;20041;-62
2021/10/25 20:52:34;;;;;;;1999.90;999.90;;;;;;;7.93;70.96;101377.97;15619334;28;20534;-60
2021/10/25 21:00:08;;;;;;;1999.90;999.90;;;;;;;7.66;71.77;101400.00;15621999;28;20375;-62
2021/10/25 21:07:42;;;;;;;1999.90;999.90;;;;;;;7.86;71.41;101394.19;15619766;28;20121;-62
2021/10/25 21:15:15;;;;;;;1999.90;999.90;;;;;;;7.77;71.04;101387.63;15617908;28;20046;-61
2021/10/25 21:22:49;;;;;;;1999.90;999.90;;;;;;;7.77;71.30;101399.56;15617736;28;20461;-59
2021/10/25 21:30:22;;;;;;;1999.90;999.90;;;;;;;7.50;70.52;101408.53;15618987;28;20045;-61
2021/10/25 21:37:56;;;;;;;1999.90;999.90;;;;;;;7.38;71.35;101410.88;15618633;28;20049;-61
2021/10/25 21:45:28;;;;;;;1999.90;999.90;;;;;;;7.17;70.89;101399.16;15616699;28;20135;-61
2021/10/25 21:53:02;;;;;;;1999.90;999.90;;;;;;;7.20;70.92;101406.91;15617744;28;20046;-61
2021/10/25 22:00:36;;;;;;;1999.90;999.90;;;;;;;7.35;71.24;101403.13;15617052;28;20125;-60
2021/10/25 22:08:10;;;;;;;1999.90;999.90;;;;;;;7.43;71.88;101402.50;15616613;28;20059;-61
2021/10/25 22:15:44;;;;;;;1999.90;999.90;;;;;;;7.38;71.90;101390.59;15614407;28;20045;-61
2021/10/25 22:23:18;;;;;;;1999.90;999.90;;;;;;;7.51;72.65;101389.91;15615542;28;20084;-61
2021/10/25 22:30:51;;;;;;;1999.90;999.90;;;;;;;7.44;72.29;101400.53;15613208;28;20410;-63
2021/10/25 22:38:25;;;;;;;1999.90;999.90;;;;;;;7.37;72.70;101405.59;15612074;28;20049;-61
2021/10/25 22:45:57;;;;;;;1999.90;999.90;;;;;;;7.66;73.20;101398.03;15613603;28;20045;-59
2021/10/25 22:53:31;;;;;;;1999.90;999.90;;;;;;;7.97;73.19;101384.56;15613627;28;20057;-60
2021/10/25 23:01:04;;;;;;;1999.90;999.90;;;;;;;8.06;73.51;101387.50;15612591;28;20146;-60
2021/10/25 23:08:38;;;;;;;1999.90;999.90;;;;;;;8.29;73.85;101377.44;15611024;28;20509;-57
2021/10/25 23:16:11;;;;;;;1999.90;999.90;;;;;;;8.35;73.65;101365.97;15620095;28;20673;-60
2021/10/25 23:23:45;;;;;;;1999.90;999.90;;;;;;;8.43;72.90;101372.78;15606169;28;20045;-57
2021/10/25 23:31:18;;;;;;;1999.90;999.90;;;;;;;8.37;73.24;101366.50;15602928;28;20080;-59
2021/10/25 23:38:52;;;;;;;1999.90;999.90;;;;;;;8.38;73.95;101368.13;15612334;28;20041;-59
2021/10/25 23:46:24;;;;;;;1999.90;999.90;;;;;;;8.45;73.41;101361.38;15612404;28;20049;-60
2021/10/25 23:53:58;;;;;;;1999.90;999.90;;;;;;;8.53;73.61;101364.28;15611421;28;20067;-59
